createdAt,value
2019-03-05T00:00:22.756Z,99.90
2019-03-05T00:02:51.174Z,99.90
2019-03-05T00:05:19.682Z,99.90
2019-03-05T00:07:48.118Z,99.90
2019-03-05T00:10:18.485Z,99.90
2019-03-05T00:12:46.904Z,99.90
2019-03-05T00:15:18.821Z,99.90
2019-03-05T00:17:47.248Z,99.90
2019-03-05T00:20:16.328Z,99.90
2019-03-05T00:22:44.759Z,99.90
2019-03-05T00:25:27.249Z,99.90
2019-03-05T00:28:13.230Z,99.90
2019-03-05T00:30:54.231Z,99.90
2019-03-05T00:33:28.730Z,99.90
2019-03-05T00:36:19.777Z,99.90
2019-03-05T00:39:04.726Z,99.90
2019-03-05T00:41:39.133Z,99.90
2019-03-05T00:44:25.443Z,99.90
2019-03-05T00:47:15.059Z,99.90
2019-03-05T00:49:58.587Z,99.90
2019-03-05T00:52:41.723Z,99.90
2019-03-05T00:55:30.893Z,99.90
2019-03-05T00:58:17.203Z,99.90
2019-03-05T01:00:52.305Z,99.90
2019-03-05T01:03:40.943Z,99.90
2019-03-05T01:06:21.468Z,99.90
2019-03-05T01:08:50.064Z,99.90
2019-03-05T01:11:19.309Z,99.90
2019-03-05T01:13:47.726Z,99.90
2019-03-05T01:16:18.186Z,99.90
2019-03-05T01:18:46.660Z,99.90
2019-03-05T01:21:15.168Z,99.90
2019-03-05T01:23:43.721Z,99.90
2019-03-05T01:26:12.658Z,99.90
2019-03-05T01:28:41.074Z,99.90
2019-03-05T01:31:26.007Z,99.90
2019-03-05T01:34:12.069Z,99.90
2019-03-05T01:36:44.831Z,99.90
2019-03-05T01:39:27.134Z,99.90
2019-03-05T01:41:55.587Z,99.90
2019-03-05T01:44:24.010Z,99.90
2019-03-05T01:46:52.453Z,99.90
2019-03-05T01:49:20.878Z,99.90
2019-03-05T01:51:49.318Z,99.90
2019-03-05T01:54:17.730Z,99.90
2019-03-05T01:56:46.525Z,99.90
2019-03-05T01:59:14.954Z,99.90
2019-03-05T02:01:43.394Z,99.90
2019-03-05T02:04:11.812Z,99.90
2019-03-05T02:06:40.253Z,99.90
2019-03-05T02:09:09.311Z,99.90
2019-03-05T02:11:37.813Z,99.90
2019-03-05T02:14:06.238Z,99.90
2019-03-05T02:16:34.660Z,99.90
2019-03-05T02:19:26.969Z,99.90
2019-03-05T02:21:55.432Z,99.90
2019-03-05T02:24:44.442Z,99.90
2019-03-05T02:27:35.310Z,99.90
2019-03-05T02:30:40.015Z,99.90
2019-03-05T02:33:32.410Z,99.90
2019-03-05T02:36:09.816Z,99.90
2019-03-05T02:38:59.248Z,99.90
2019-03-05T02:41:30.753Z,99.90
2019-03-05T02:44:04.773Z,99.90
2019-03-05T02:47:01.800Z,99.90
2019-03-05T02:49:48.308Z,99.90
2019-03-05T02:52:28.618Z,99.90
2019-03-05T02:55:16.318Z,99.90
2019-03-05T02:57:43.809Z,99.90
2019-03-05T03:00:13.892Z,99.90
2019-03-05T03:02:44.023Z,99.90
2019-03-05T03:05:20.020Z,99.90
2019-03-05T03:07:48.452Z,99.90
2019-03-05T03:10:19.296Z,99.90
2019-03-05T03:12:47.802Z,99.90
2019-03-05T03:15:16.826Z,99.90
2019-03-05T03:17:45.505Z,99.90
2019-03-05T03:20:15.070Z,99.90
2019-03-05T03:22:43.501Z,99.90
2019-03-05T03:25:14.470Z,99.90
2019-03-05T03:27:42.966Z,99.90
2019-03-05T03:30:13.955Z,99.90
2019-03-05T03:32:42.375Z,99.90
2019-03-05T03:35:12.646Z,99.90
2019-03-05T03:37:41.076Z,99.90
2019-03-05T03:40:12.132Z,99.90
2019-03-05T03:42:40.578Z,99.90
2019-03-05T03:45:17.334Z,99.90
2019-03-05T03:47:46.754Z,99.90
2019-03-05T03:50:15.245Z,99.90
2019-03-05T03:52:43.686Z,99.90
2019-03-05T03:55:14.262Z,99.90
2019-03-05T03:57:42.932Z,99.90
2019-03-05T04:00:19.536Z,99.90
2019-03-05T04:02:48.041Z,99.90
2019-03-05T04:05:17.223Z,99.90
2019-03-05T04:07:45.730Z,99.90
2019-03-05T04:10:15.811Z,99.90
2019-03-05T04:12:44.314Z,99.90
2019-03-05T04:15:18.372Z,99.90
2019-03-05T04:17:47.007Z,99.90
2019-03-05T04:20:18.818Z,99.90
2019-03-05T04:22:47.258Z,99.90
2019-03-05T04:25:15.676Z,99.90
2019-03-05T04:27:44.107Z,99.90
2019-03-05T04:30:15.169Z,99.90
2019-03-05T04:32:43.615Z,99.90
2019-03-05T04:35:15.019Z,99.90
2019-03-05T04:37:43.466Z,99.90
2019-03-05T04:40:12.423Z,99.90
2019-03-05T04:42:40.851Z,99.90
2019-03-05T04:45:28.901Z,99.90
2019-03-05T04:47:57.338Z,99.90
2019-03-05T04:50:27.409Z,99.90
2019-03-05T04:52:55.845Z,99.90
2019-03-05T04:55:24.262Z,99.90
2019-03-05T04:57:52.706Z,99.90
2019-03-05T05:00:21.123Z,99.90
2019-03-05T05:02:49.553Z,99.90
2019-03-05T05:05:17.977Z,99.90
2019-03-05T05:07:46.955Z,99.90
2019-03-05T05:10:34.732Z,99.90
2019-03-05T05:13:03.239Z,99.90
2019-03-05T05:15:35.092Z,99.90
2019-03-05T05:18:03.698Z,99.90
2019-03-05T05:20:32.237Z,99.90
2019-03-05T05:23:00.849Z,99.90
2019-03-05T05:25:29.239Z,99.90
2019-03-05T05:27:57.783Z,99.90
2019-03-05T05:30:36.853Z,99.90
2019-03-05T05:33:06.415Z,99.90
2019-03-05T05:35:34.928Z,99.90
2019-03-05T05:38:03.420Z,99.90
2019-03-05T05:40:33.382Z,99.90
2019-03-05T05:43:02.081Z,99.90
2019-03-05T05:45:33.815Z,99.90
2019-03-05T05:48:02.227Z,99.90
2019-03-05T05:50:30.666Z,99.90
2019-03-05T05:52:59.089Z,99.90
2019-03-05T05:55:27.542Z,99.90
2019-03-05T05:57:55.967Z,99.90
2019-03-05T06:00:24.405Z,99.90
2019-03-05T06:02:52.834Z,99.90
2019-03-05T06:05:21.282Z,99.90
2019-03-05T06:07:49.703Z,99.90
2019-03-05T06:10:18.136Z,99.90
2019-03-05T06:12:47.195Z,99.90
2019-03-05T06:15:16.277Z,99.90
2019-03-05T06:17:44.767Z,99.90
2019-03-05T06:20:32.554Z,99.90
2019-03-05T06:23:00.988Z,99.90
2019-03-05T06:25:29.423Z,99.90
2019-03-05T06:27:57.835Z,99.90
2019-03-05T06:30:28.428Z,99.90
2019-03-05T06:32:56.855Z,99.90
2019-03-05T06:35:25.281Z,99.90
2019-03-05T06:37:53.713Z,99.90
2019-03-05T06:40:24.290Z,99.90
2019-03-05T06:42:52.704Z,99.90
2019-03-05T06:45:21.220Z,99.90
2019-03-05T06:47:49.646Z,99.90
2019-03-05T06:50:26.188Z,99.90
2019-03-05T06:52:54.620Z,99.90
2019-03-05T06:55:23.218Z,99.90
2019-03-05T06:57:51.636Z,99.90
2019-03-05T07:00:38.407Z,99.90
2019-03-05T07:03:08.381Z,99.90
2019-03-05T07:06:13.154Z,99.90
2019-03-05T07:08:44.742Z,99.90
2019-03-05T07:11:34.192Z,99.90
2019-03-05T07:14:14.618Z,99.90
2019-03-05T07:16:54.486Z,99.90
2019-03-05T07:19:25.259Z,99.90
2019-03-05T07:21:59.405Z,99.90
2019-03-05T07:24:47.806Z,99.90
2019-03-05T07:27:19.986Z,99.90
2019-03-05T07:29:48.425Z,99.90
2019-03-05T07:32:17.328Z,99.90
2019-03-05T07:34:47.380Z,99.90
2019-03-05T07:37:16.054Z,99.90
2019-03-05T07:39:44.484Z,99.90
2019-03-05T07:42:12.902Z,99.90
2019-03-05T07:44:41.332Z,99.90
2019-03-05T07:47:29.092Z,99.90
2019-03-05T07:49:57.519Z,99.90
2019-03-05T07:52:25.936Z,99.90
2019-03-05T07:54:54.367Z,99.90
2019-03-05T07:57:22.803Z,99.90
2019-03-05T07:59:51.228Z,99.90
2019-03-05T08:02:19.657Z,99.90
2019-03-05T08:04:48.091Z,99.90
2019-03-05T08:07:17.357Z,99.90
2019-03-05T08:09:45.772Z,99.90
2019-03-05T08:12:20.365Z,99.10
2019-03-05T08:14:57.955Z,99.90
2019-03-05T08:17:26.394Z,99.90
2019-03-05T08:19:54.872Z,99.90
2019-03-05T08:22:23.466Z,99.90
2019-03-05T08:24:51.903Z,99.90
2019-03-05T08:27:20.340Z,99.90
2019-03-05T08:29:48.757Z,99.90
2019-03-05T08:32:17.404Z,99.90
2019-03-05T08:34:45.840Z,99.90
2019-03-05T08:37:14.263Z,99.90
2019-03-05T08:39:42.683Z,99.90
2019-03-05T08:42:11.111Z,99.90
2019-03-05T08:44:49.927Z,99.90
2019-03-05T08:47:09.714Z,99.90
2019-03-05T08:49:38.146Z,99.90
2019-03-05T08:52:06.753Z,99.90
2019-03-05T08:54:35.168Z,99.90
2019-03-05T08:57:03.604Z,99.90
2019-03-05T08:59:32.766Z,99.90
2019-03-05T09:02:01.415Z,99.90
2019-03-05T09:04:29.898Z,99.90
2019-03-05T09:06:58.372Z,99.90
2019-03-05T09:09:26.802Z,99.90
2019-03-05T09:11:55.418Z,99.90
2019-03-05T09:14:23.849Z,99.90
2019-03-05T09:16:52.271Z,99.90
2019-03-05T09:19:20.722Z,99.90
2019-03-05T09:21:49.391Z,99.90
2019-03-05T09:24:17.937Z,99.90
2019-03-05T09:26:51.281Z,99.90
2019-03-05T09:29:17.513Z,99.90
2019-03-05T09:31:45.957Z,99.90
2019-03-05T09:34:14.390Z,99.90
2019-03-05T09:36:50.515Z,99.90
2019-03-05T09:39:13.310Z,99.90
2019-03-05T09:41:41.812Z,99.90
2019-03-05T09:44:10.242Z,99.90
2019-03-05T09:46:38.687Z,99.90
2019-03-05T09:49:07.112Z,99.40
2019-03-05T09:51:35.561Z,99.60
2019-03-05T09:54:04.623Z,99.00
2019-03-05T09:56:33.082Z,96.80
2019-03-05T09:59:01.508Z,98.00
2019-03-05T10:01:29.955Z,97.60
2019-03-05T10:03:58.379Z,97.20
2019-03-05T10:06:26.811Z,97.00
2019-03-05T10:08:55.284Z,97.70
2019-03-05T10:11:24.071Z,97.90
2019-03-05T10:13:52.499Z,97.90
2019-03-05T10:16:20.932Z,97.70
2019-03-05T10:18:49.416Z,97.70
2019-03-05T10:21:17.863Z,97.30
2019-03-05T10:23:46.466Z,97.80
2019-03-05T10:26:14.882Z,98.00
2019-03-05T10:28:43.321Z,98.40
2019-03-05T10:31:12.060Z,98.50
2019-03-05T10:33:40.569Z,98.30
2019-03-05T10:36:08.999Z,97.90
2019-03-05T10:38:37.443Z,98.40
2019-03-05T10:41:05.927Z,98.80
2019-03-05T10:43:34.730Z,98.00
2019-03-05T10:46:03.383Z,97.90
2019-03-05T10:48:31.879Z,97.60
2019-03-05T10:51:00.381Z,97.00
2019-03-05T10:53:29.095Z,97.30
2019-03-05T10:55:57.592Z,95.10
2019-03-05T10:58:33.753Z,95.10
2019-03-05T11:00:56.637Z,96.70
2019-03-05T11:03:27.312Z,95.80
2019-03-05T11:05:55.725Z,96.20
2019-03-05T11:08:25.384Z,96.20
2019-03-05T11:10:54.707Z,96.30
2019-03-05T11:13:23.146Z,96.20
2019-03-05T11:16:15.424Z,96.30
2019-03-05T11:18:43.861Z,96.70
2019-03-05T11:21:12.295Z,96.40
2019-03-05T11:23:40.923Z,97.30
2019-03-05T11:26:09.345Z,97.40
2019-03-05T11:28:37.884Z,97.20
2019-03-05T11:31:06.375Z,97.60
2019-03-05T11:33:34.814Z,97.80
2019-03-05T11:36:03.632Z,98.20
2019-03-05T11:38:32.069Z,97.60
2019-03-05T11:41:00.555Z,99.90
2019-03-05T11:43:28.979Z,95.90
2019-03-05T11:45:57.403Z,96.80
2019-03-05T11:48:25.869Z,97.00
2019-03-05T11:50:54.295Z,96.70
2019-03-05T11:53:22.748Z,97.30
2019-03-05T11:55:51.170Z,98.30
2019-03-05T11:58:19.614Z,98.70
2019-03-05T12:00:49.679Z,99.10
2019-03-05T12:03:18.118Z,98.90
2019-03-05T12:05:46.535Z,98.70
2019-03-05T12:08:14.964Z,98.50
2019-03-05T12:10:43.384Z,99.30
2019-03-05T12:13:14.342Z,99.30
2019-03-05T12:15:44.138Z,99.50
2019-03-05T12:18:12.560Z,99.30
2019-03-05T12:20:40.979Z,99.90
2019-03-05T12:23:10.306Z,99.90
2019-03-05T12:25:40.920Z,99.90
2019-03-05T12:28:11.052Z,99.90
2019-03-05T12:30:40.121Z,99.90
2019-03-05T12:33:08.808Z,99.90
2019-03-05T12:35:37.344Z,99.90
2019-03-05T12:38:06.022Z,99.90
2019-03-05T12:40:34.535Z,99.90
2019-03-05T12:43:03.215Z,99.90
2019-03-05T12:45:31.665Z,99.90
2019-03-05T12:48:00.127Z,99.90
2019-03-05T12:50:33.574Z,99.90
2019-03-05T12:53:02.060Z,99.90
2019-03-05T12:55:30.563Z,99.90
2019-03-05T12:57:59.024Z,99.90
2019-03-05T13:00:36.365Z,99.90
2019-03-05T13:03:05.036Z,99.90
2019-03-05T13:05:33.545Z,99.90
2019-03-05T13:08:02.039Z,99.90
2019-03-05T13:10:37.249Z,99.90
2019-03-05T13:13:05.049Z,99.90
2019-03-05T13:15:35.080Z,99.90
2019-03-05T13:18:03.500Z,99.90
2019-03-05T13:20:31.927Z,99.90
2019-03-05T13:23:00.366Z,99.90
2019-03-05T13:25:29.949Z,99.90
2019-03-05T13:28:02.133Z,99.90
2019-03-05T13:30:32.205Z,99.90
2019-03-05T13:33:00.946Z,99.90
2019-03-05T13:35:30.646Z,99.90
2019-03-05T13:38:07.672Z,99.90
2019-03-05T13:40:38.220Z,99.90
2019-03-05T13:43:05.393Z,99.90
2019-03-05T13:45:33.829Z,99.90
2019-03-05T13:48:20.558Z,99.90
2019-03-05T13:50:54.017Z,99.90
2019-03-05T13:53:31.240Z,99.90
2019-03-05T13:56:04.081Z,99.90
2019-03-05T13:58:44.064Z,99.90
2019-03-05T14:01:13.171Z,99.90
2019-03-05T14:03:50.239Z,99.90
2019-03-05T14:06:24.760Z,99.90
2019-03-05T14:09:12.096Z,99.90
2019-03-05T14:11:41.103Z,99.90
2019-03-05T14:14:15.517Z,99.90
2019-03-05T14:16:44.215Z,99.90
2019-03-05T14:19:12.680Z,99.90
2019-03-05T14:21:42.741Z,99.90
2019-03-05T14:24:11.166Z,99.90
2019-03-05T14:26:39.996Z,99.90
2019-03-05T14:29:08.439Z,99.90
2019-03-05T14:31:36.924Z,99.90
2019-03-05T14:34:05.424Z,99.90
2019-03-05T14:36:33.850Z,99.90
2019-03-05T14:39:04.106Z,99.90
2019-03-05T14:41:32.670Z,99.90
2019-03-05T14:44:01.076Z,99.90
2019-03-05T14:46:30.556Z,99.90
2019-03-05T14:48:59.045Z,99.90
2019-03-05T14:51:27.550Z,99.90
2019-03-05T14:53:56.003Z,99.90
2019-03-05T14:56:24.591Z,99.90
2019-03-05T14:58:55.270Z,99.90
2019-03-05T15:01:25.595Z,99.90
2019-03-05T15:03:54.127Z,99.90
2019-03-05T15:06:26.081Z,99.90
2019-03-05T15:08:54.591Z,99.90
2019-03-05T15:11:23.077Z,99.90
2019-03-05T15:13:51.487Z,99.90
2019-03-05T15:16:20.011Z,99.90
2019-03-05T15:18:48.455Z,99.90
2019-03-05T15:21:17.973Z,99.90
2019-03-05T15:23:46.409Z,99.90
2019-03-05T15:26:15.685Z,99.90
2019-03-05T15:28:55.765Z,99.90
2019-03-05T15:31:14.275Z,99.90
2019-03-05T15:33:42.750Z,99.90
2019-03-05T15:36:23.299Z,99.90
2019-03-05T15:38:41.396Z,99.90
2019-03-05T15:41:09.894Z,99.90
2019-03-05T15:43:38.401Z,99.90
2019-03-05T15:46:06.880Z,99.90
2019-03-05T15:48:35.381Z,99.90
2019-03-05T15:51:03.929Z,99.90
2019-03-05T15:53:32.407Z,99.90
2019-03-05T15:56:00.838Z,99.90
2019-03-05T15:58:29.294Z,99.90
2019-03-05T16:00:57.722Z,99.90
2019-03-05T16:03:26.163Z,99.90
2019-03-05T16:05:57.719Z,99.90
2019-03-05T16:08:26.034Z,99.90
2019-03-05T16:10:58.509Z,99.90
2019-03-05T16:13:24.813Z,99.90
2019-03-05T16:15:53.242Z,99.90
2019-03-05T16:18:21.683Z,99.90
2019-03-05T16:20:50.095Z,99.90
2019-03-05T16:23:18.518Z,99.90
2019-03-05T16:25:50.342Z,99.90
2019-03-05T16:28:17.231Z,99.90
2019-03-05T16:30:47.293Z,99.90
2019-03-05T16:33:20.290Z,99.90
2019-03-05T16:35:59.108Z,99.90
2019-03-05T16:38:43.965Z,99.90
2019-03-05T16:41:22.802Z,99.90
2019-03-05T16:43:53.035Z,99.90
2019-03-05T16:46:29.019Z,99.90
2019-03-05T16:49:04.753Z,99.90
2019-03-05T16:51:34.808Z,99.90
2019-03-05T16:54:10.863Z,99.90
2019-03-05T16:56:40.926Z,99.90
2019-03-05T16:59:16.723Z,99.90
2019-03-05T17:01:46.798Z,99.90
2019-03-05T17:04:31.420Z,99.90
2019-03-05T17:07:07.314Z,99.90
2019-03-05T17:09:40.072Z,99.90
2019-03-05T17:12:08.498Z,99.90
2019-03-05T17:14:36.967Z,99.90
2019-03-05T17:17:05.582Z,99.90
2019-03-05T17:19:34.014Z,99.90
2019-03-05T17:22:02.636Z,99.90
2019-03-05T17:24:31.058Z,99.90
2019-03-05T17:26:59.486Z,99.90
2019-03-05T17:29:27.979Z,99.90
2019-03-05T17:31:56.494Z,99.90
2019-03-05T17:34:25.101Z,99.90
2019-03-05T17:36:53.515Z,99.90
2019-03-05T17:39:22.187Z,99.90
2019-03-05T17:41:50.594Z,99.90
2019-03-05T17:44:19.025Z,99.90
2019-03-05T17:46:49.035Z,99.90
2019-03-05T17:49:17.459Z,99.90
2019-03-05T17:51:45.981Z,99.90
2019-03-05T17:54:14.419Z,99.90
2019-03-05T17:56:48.861Z,99.90
2019-03-05T17:59:17.283Z,99.90
2019-03-05T18:01:45.710Z,99.90
2019-03-05T18:04:14.131Z,99.90
2019-03-05T18:06:42.543Z,99.90
2019-03-05T18:09:11.039Z,99.90
2019-03-05T18:11:39.479Z,99.90
2019-03-05T18:14:07.899Z,99.90
2019-03-05T18:16:36.430Z,99.90
2019-03-05T18:19:04.990Z,99.90
2019-03-05T18:21:33.417Z,99.90
2019-03-05T18:24:01.878Z,99.90
2019-03-05T18:26:30.355Z,99.90
2019-03-05T18:28:58.790Z,99.90
2019-03-05T18:31:27.218Z,99.90
2019-03-05T18:33:55.635Z,99.90
2019-03-05T18:36:24.050Z,99.90
2019-03-05T18:38:52.486Z,99.90
2019-03-05T18:41:20.915Z,99.90
2019-03-05T18:43:49.383Z,99.90
2019-03-05T18:46:18.758Z,99.90
2019-03-05T18:48:47.201Z,99.90
2019-03-05T18:51:15.630Z,99.90
2019-03-05T18:53:44.052Z,99.90
2019-03-05T18:56:12.469Z,99.90
2019-03-05T18:58:40.896Z,99.90
2019-03-05T19:01:09.792Z,99.90
2019-03-05T19:03:38.306Z,99.90
2019-03-05T19:06:06.814Z,99.90
2019-03-05T19:08:35.317Z,99.90
2019-03-05T19:11:03.874Z,99.90
2019-03-05T19:13:32.598Z,99.90
2019-03-05T19:16:01.276Z,99.90
2019-03-05T19:18:29.699Z,99.90
2019-03-05T19:20:58.157Z,99.90
2019-03-05T19:23:26.584Z,99.90
2019-03-05T19:25:55.287Z,99.90
2019-03-05T19:28:23.703Z,99.90
2019-03-05T19:30:52.614Z,99.90
2019-03-05T19:33:21.065Z,99.90
2019-03-05T19:35:49.507Z,99.90
2019-03-05T19:38:18.883Z,99.90
2019-03-05T19:40:48.373Z,99.90
2019-03-05T19:43:16.863Z,99.90
2019-03-05T19:45:45.294Z,99.90
2019-03-05T19:48:13.721Z,99.90
2019-03-05T19:50:47.657Z,99.90
2019-03-05T19:53:16.174Z,99.90
2019-03-05T19:55:44.639Z,99.90
2019-03-05T20:01:08.924Z,99.90
2019-03-05T20:03:37.362Z,99.90
2019-03-05T20:06:05.954Z,99.90
2019-03-05T20:08:39.847Z,99.90
2019-03-05T20:11:05.263Z,99.90
2019-03-05T20:13:33.687Z,99.90
2019-03-05T20:16:02.454Z,99.90
2019-03-05T20:18:32.763Z,99.90
2019-03-05T20:21:01.198Z,99.90
2019-03-05T20:23:29.736Z,99.90
2019-03-05T20:25:58.259Z,99.90
2019-03-05T20:28:26.692Z,99.90
2019-03-05T20:30:55.215Z,99.90
2019-03-05T20:33:23.632Z,99.90
2019-03-05T20:35:52.246Z,99.90
2019-03-05T20:38:20.710Z,99.90
2019-03-05T20:40:49.228Z,99.90
2019-03-05T20:43:17.656Z,99.90
2019-03-05T20:45:48.531Z,99.90
2019-03-05T20:48:17.317Z,99.90
2019-03-05T20:50:45.817Z,99.90
2019-03-05T20:53:14.233Z,99.90
2019-03-05T20:55:42.742Z,99.90
2019-03-05T20:58:11.165Z,99.90
2019-03-05T21:00:40.402Z,99.90
2019-03-05T21:03:09.969Z,99.90
2019-03-05T21:05:43.450Z,99.90
2019-03-05T21:08:12.311Z,99.90
2019-03-05T21:10:40.755Z,99.90
2019-03-05T21:13:09.532Z,99.90
2019-03-05T21:15:37.948Z,99.90
2019-03-05T21:18:09.451Z,99.90
2019-03-05T21:20:39.189Z,99.90
2019-03-05T21:23:07.818Z,99.90
2019-03-05T21:25:36.320Z,99.90
2019-03-05T21:28:04.740Z,99.90
2019-03-05T21:30:33.243Z,99.90
2019-03-05T21:33:02.548Z,99.90
2019-03-05T21:35:30.987Z,99.90
2019-03-05T21:37:59.414Z,99.90
2019-03-05T21:40:35.270Z,99.90
2019-03-05T21:43:03.683Z,99.90
2019-03-05T21:45:44.354Z,99.90
2019-03-05T21:48:12.804Z,99.90
2019-03-05T21:50:41.427Z,99.90
2019-03-05T21:53:09.827Z,99.90
2019-03-05T21:55:38.267Z,99.90
2019-03-05T21:58:06.763Z,99.90
2019-03-05T22:00:39.990Z,99.90
2019-03-05T22:03:08.486Z,99.90
2019-03-05T22:05:36.992Z,99.90
2019-03-05T22:08:05.428Z,99.90
2019-03-05T22:10:34.243Z,99.90
2019-03-05T22:13:02.665Z,99.90
2019-03-05T22:15:34.905Z,99.90
2019-03-05T22:18:03.412Z,99.90
2019-03-05T22:20:31.850Z,99.90
2019-03-05T22:23:00.553Z,99.90
2019-03-05T22:25:29.352Z,99.90
2019-03-05T22:27:58.075Z,99.90
2019-03-05T22:30:34.551Z,99.90
2019-03-05T22:33:03.061Z,99.90
2019-03-05T22:35:31.505Z,99.90
2019-03-05T22:38:00.021Z,99.90
2019-03-05T22:40:29.001Z,99.90
2019-03-05T22:42:57.428Z,99.90
2019-03-05T22:45:30.271Z,99.90
2019-03-05T22:47:58.714Z,99.90
2019-03-05T22:50:27.214Z,99.90
2019-03-05T22:52:55.703Z,99.90
2019-03-05T22:55:24.165Z,99.90
2019-03-05T22:57:52.579Z,99.90
2019-03-05T23:00:25.738Z,99.90
2019-03-05T23:02:54.255Z,99.90
2019-03-05T23:05:22.922Z,99.90
2019-03-05T23:07:51.352Z,99.90
2019-03-05T23:10:20.125Z,99.90
2019-03-05T23:12:49.475Z,99.90
2019-03-05T23:15:18.338Z,99.90
2019-03-05T23:17:46.950Z,99.90
2019-03-05T23:20:17.289Z,99.90
2019-03-05T23:22:46.255Z,99.90
2019-03-05T23:25:16.906Z,99.90
2019-03-05T23:27:45.407Z,99.90
2019-03-05T23:30:16.952Z,99.90
2019-03-05T23:32:48.858Z,99.90
2019-03-05T23:35:17.281Z,99.90
2019-03-05T23:37:45.795Z,99.90
2019-03-05T23:40:16.158Z,99.90
2019-03-05T23:42:44.914Z,99.90
2019-03-05T23:45:20.147Z,99.90
2019-03-05T23:47:49.442Z,99.90
2019-03-05T23:50:18.223Z,99.90
2019-03-05T23:52:46.667Z,99.90
2019-03-05T23:55:15.470Z,99.90
2019-03-05T23:57:44.194Z,99.90
